createdAt,value
2023-07-19T00:01:45.597Z,2.63
2023-07-19T00:04:12.332Z,2.20
2023-07-19T00:06:41.388Z,2.45
2023-07-19T00:09:07.990Z,2.17
2023-07-19T00:11:34.756Z,2.38
2023-07-19T00:14:02.024Z,2.60
2023-07-19T00:16:29.213Z,2.53
2023-07-19T00:19:00.000Z,2.28
2023-07-19T00:21:34.311Z,1.90
2023-07-19T00:24:01.121Z,2.60
2023-07-19T00:26:27.785Z,2.58
2023-07-19T00:28:56.593Z,2.50
2023-07-19T00:31:23.347Z,2.47
2023-07-19T00:33:49.968Z,2.47
2023-07-19T00:36:23.088Z,2.35
2023-07-19T00:38:49.681Z,2.55
2023-07-19T00:41:16.290Z,2.72
2023-07-19T00:43:48.956Z,2.30
2023-07-19T00:46:16.209Z,2.60
2023-07-19T00:48:43.407Z,2.47
2023-07-19T00:51:12.361Z,2.70
2023-07-19T00:53:42.312Z,2.60
2023-07-19T00:56:10.031Z,2.67
2023-07-19T00:58:37.299Z,2.53
2023-07-19T01:01:06.882Z,2.60
2023-07-19T01:03:34.207Z,2.42
2023-07-19T01:06:03.114Z,2.45
2023-07-19T01:08:32.072Z,2.65
2023-07-19T01:10:58.654Z,2.50
2023-07-19T01:13:25.353Z,2.67
2023-07-19T01:15:52.057Z,2.50
2023-07-19T01:18:20.036Z,2.40
2023-07-19T01:21:07.371Z,2.63
2023-07-19T01:23:44.186Z,2.60
2023-07-19T01:26:19.253Z,2.75
2023-07-19T01:28:45.951Z,2.67
2023-07-19T01:31:18.281Z,2.40
2023-07-19T01:33:45.345Z,2.45
2023-07-19T01:36:11.973Z,2.45
2023-07-19T01:38:38.499Z,2.63
2023-07-19T01:41:05.267Z,2.92
2023-07-19T01:43:32.096Z,3.22
2023-07-19T01:45:59.687Z,2.92
2023-07-19T01:48:28.168Z,3.17
2023-07-19T01:53:55.506Z,2.70
2023-07-19T01:56:23.974Z,2.63
2023-07-19T01:58:50.518Z,3.00
2023-07-19T02:01:19.077Z,2.80
2023-07-19T02:03:45.961Z,2.70
2023-07-19T02:06:18.703Z,2.47
2023-07-19T02:08:51.955Z,3.00
2023-07-19T02:11:19.148Z,2.88
2023-07-19T02:13:45.987Z,2.80
2023-07-19T02:16:14.384Z,3.50
2023-07-19T02:18:41.245Z,3.25
2023-07-19T02:21:07.828Z,3.30
2023-07-19T02:23:37.549Z,3.47
2023-07-19T02:26:04.087Z,3.10
2023-07-19T02:28:30.692Z,3.17
2023-07-19T02:31:01.820Z,3.70
2023-07-19T02:33:28.426Z,3.75
2023-07-19T02:35:55.442Z,3.42
2023-07-19T02:38:31.230Z,3.47
2023-07-19T02:41:00.170Z,2.95
2023-07-19T02:43:27.436Z,3.00
2023-07-19T02:45:54.672Z,2.95
2023-07-19T02:48:22.115Z,3.60
2023-07-19T02:50:50.343Z,3.35
2023-07-19T02:53:19.489Z,3.70
2023-07-19T02:55:48.463Z,3.30
2023-07-19T02:58:15.689Z,3.25
2023-07-19T03:00:45.351Z,3.45
2023-07-19T03:03:13.201Z,3.67
2023-07-19T03:05:43.390Z,3.00
2023-07-19T03:08:12.523Z,3.38
2023-07-19T03:10:40.119Z,3.00
2023-07-19T03:13:06.922Z,3.15
2023-07-19T03:15:34.891Z,3.17
2023-07-19T03:18:04.629Z,3.20
2023-07-19T03:20:32.101Z,3.13
2023-07-19T03:23:01.675Z,2.95
2023-07-19T03:25:28.727Z,2.85
2023-07-19T03:27:58.919Z,3.28
2023-07-19T03:30:27.348Z,3.10
2023-07-19T03:32:54.094Z,3.13
2023-07-19T03:35:22.186Z,3.55
2023-07-19T03:37:50.940Z,3.40
2023-07-19T03:40:17.729Z,3.15
2023-07-19T03:42:44.274Z,3.13
2023-07-19T03:45:11.717Z,3.08
2023-07-19T03:47:38.506Z,2.78
2023-07-19T03:50:05.934Z,3.20
2023-07-19T03:52:32.973Z,2.88
2023-07-19T03:54:59.568Z,3.35
2023-07-19T03:57:26.281Z,3.30
2023-07-19T04:00:01.742Z,3.20
2023-07-19T04:02:28.310Z,2.95
2023-07-19T04:04:54.881Z,3.47
2023-07-19T04:07:22.393Z,2.95
2023-07-19T04:09:48.913Z,3.00
2023-07-19T04:12:16.823Z,2.70
2023-07-19T04:14:45.162Z,2.92
2023-07-19T04:17:12.132Z,3.28
2023-07-19T04:19:38.767Z,3.05
2023-07-19T04:22:07.675Z,3.00
2023-07-19T04:24:36.149Z,2.85
2023-07-19T04:27:02.793Z,2.70
2023-07-19T04:29:31.227Z,3.40
2023-07-19T04:31:57.795Z,3.00
2023-07-19T04:34:24.386Z,3.05
2023-07-19T04:36:57.482Z,2.70
2023-07-19T04:39:24.070Z,3.13
2023-07-19T04:41:51.004Z,3.05
2023-07-19T04:44:18.008Z,3.10
2023-07-19T04:46:48.064Z,2.92
2023-07-19T04:49:17.408Z,2.72
2023-07-19T04:51:43.956Z,2.58
2023-07-19T04:54:11.495Z,2.33
2023-07-19T04:56:39.866Z,2.78
2023-07-19T04:59:06.830Z,2.80
2023-07-19T05:01:33.425Z,2.42
2023-07-19T05:04:00.111Z,2.30
2023-07-19T05:06:26.751Z,2.22
2023-07-19T05:08:53.299Z,2.88
2023-07-19T05:11:21.681Z,2.58
2023-07-19T05:13:51.229Z,2.70
2023-07-19T05:16:18.528Z,2.70
2023-07-19T05:18:46.295Z,3.00
2023-07-19T05:21:13.065Z,2.55
2023-07-19T05:23:39.954Z,2.83
2023-07-19T05:26:06.688Z,2.42
2023-07-19T05:28:35.466Z,3.00
2023-07-19T05:31:05.951Z,2.88
2023-07-19T05:33:34.090Z,3.00
2023-07-19T05:36:03.560Z,2.65
2023-07-19T05:38:30.572Z,3.03
2023-07-19T05:41:01.834Z,2.70
2023-07-19T05:43:33.472Z,3.10
2023-07-19T05:46:19.898Z,2.58
2023-07-19T05:48:51.648Z,2.85
2023-07-19T05:51:18.348Z,2.80
2023-07-19T05:53:44.956Z,2.47
2023-07-19T05:56:11.846Z,2.60
2023-07-19T05:58:39.721Z,2.88
2023-07-19T06:01:09.412Z,3.50
2023-07-19T06:03:36.462Z,3.30
2023-07-19T06:06:07.142Z,3.15
2023-07-19T06:08:33.941Z,3.00
2023-07-19T06:11:02.405Z,3.08
2023-07-19T06:13:29.049Z,3.10
2023-07-19T06:15:58.016Z,3.30
2023-07-19T06:18:31.098Z,3.13
2023-07-19T06:20:57.695Z,3.13
2023-07-19T06:23:24.413Z,3.00
2023-07-19T06:25:53.330Z,2.90
2023-07-19T06:28:19.916Z,3.17
2023-07-19T06:30:50.596Z,3.10
2023-07-19T06:33:17.499Z,3.28
2023-07-19T06:35:44.804Z,2.92
2023-07-19T06:38:11.407Z,3.40
2023-07-19T06:40:39.745Z,3.17
2023-07-19T06:43:07.463Z,2.80
2023-07-19T06:45:34.092Z,2.80
2023-07-19T06:48:02.504Z,3.22
2023-07-19T06:50:29.175Z,3.40
2023-07-19T06:52:55.878Z,2.80
2023-07-19T06:55:29.977Z,3.78
2023-07-19T06:57:58.901Z,3.03
2023-07-19T07:00:25.712Z,2.60
2023-07-19T07:02:54.787Z,2.70
2023-07-19T07:05:21.569Z,2.83
2023-07-19T07:07:48.411Z,2.63
2023-07-19T07:10:15.071Z,2.63
2023-07-19T07:12:43.616Z,2.28
2023-07-19T07:15:10.281Z,2.50
2023-07-19T07:17:39.178Z,2.58
2023-07-19T07:20:08.660Z,2.80
2023-07-19T07:22:35.338Z,2.53
2023-07-19T07:25:04.495Z,2.50
2023-07-19T07:27:31.085Z,2.42
2023-07-19T07:29:59.501Z,2.47
2023-07-19T07:32:37.454Z,2.50
2023-07-19T07:35:07.932Z,2.35
2023-07-19T07:37:36.918Z,2.40
2023-07-19T07:40:04.686Z,2.20
2023-07-19T07:42:31.192Z,2.65
2023-07-19T07:45:02.704Z,2.45
2023-07-19T07:47:31.537Z,2.53
2023-07-19T07:49:58.373Z,2.70
2023-07-19T07:52:31.396Z,2.45
2023-07-19T07:54:59.743Z,2.55
2023-07-19T07:57:26.885Z,2.20
2023-07-19T07:59:53.514Z,2.60
2023-07-19T08:02:20.301Z,2.83
2023-07-19T08:04:48.956Z,2.58
2023-07-19T08:07:17.940Z,2.30
2023-07-19T08:09:44.960Z,2.58
2023-07-19T08:12:11.518Z,2.40
2023-07-19T08:14:41.885Z,2.70
2023-07-19T08:17:10.680Z,2.13
2023-07-19T08:19:37.238Z,2.45
2023-07-19T08:22:05.562Z,2.17
2023-07-19T08:24:34.800Z,2.20
2023-07-19T08:27:01.664Z,2.25
2023-07-19T08:29:28.741Z,2.63
2023-07-19T08:31:57.471Z,2.10
2023-07-19T08:34:24.017Z,2.45
2023-07-19T08:36:50.890Z,2.38
2023-07-19T08:39:17.634Z,2.42
2023-07-19T08:41:44.779Z,2.30
2023-07-19T08:44:12.151Z,2.13
2023-07-19T08:46:39.836Z,2.30
2023-07-19T08:49:08.382Z,2.40
2023-07-19T08:51:35.558Z,2.70
2023-07-19T08:54:02.168Z,2.50
2023-07-19T08:56:31.672Z,2.75
2023-07-19T08:58:58.217Z,2.58
2023-07-19T09:01:34.937Z,2.28
2023-07-19T09:04:09.331Z,2.90
2023-07-19T09:06:49.219Z,2.50
2023-07-19T09:09:17.546Z,2.60
2023-07-19T09:12:00.919Z,2.55
2023-07-19T09:14:38.021Z,2.45
2023-07-19T09:17:12.210Z,2.13
2023-07-19T09:19:43.108Z,2.67
2023-07-19T09:22:15.822Z,2.17
2023-07-19T09:24:58.456Z,2.35
2023-07-19T09:27:30.479Z,2.33
2023-07-19T09:29:57.272Z,2.20
2023-07-19T09:32:24.417Z,1.77
2023-07-19T09:34:57.745Z,2.10
2023-07-19T09:37:26.265Z,2.40
2023-07-19T09:39:53.817Z,2.05
2023-07-19T09:42:22.790Z,2.50
2023-07-19T09:44:50.056Z,1.70
2023-07-19T09:47:29.052Z,2.25
2023-07-19T09:50:01.685Z,1.58
2023-07-19T09:52:30.288Z,1.80
2023-07-19T09:54:58.096Z,1.58
2023-07-19T09:57:30.366Z,1.85
2023-07-19T09:59:57.519Z,1.75
2023-07-19T10:02:24.372Z,1.33
2023-07-19T10:04:52.539Z,1.70
2023-07-19T10:07:37.659Z,1.73
2023-07-19T10:10:16.241Z,1.60
2023-07-19T10:12:48.930Z,1.80
2023-07-19T10:15:19.903Z,1.60
2023-07-19T10:17:51.738Z,1.70
2023-07-19T10:20:23.974Z,1.60
2023-07-19T10:22:54.133Z,1.40
2023-07-19T10:25:32.337Z,1.50
2023-07-19T10:28:10.434Z,1.83
2023-07-19T10:30:53.284Z,1.77
2023-07-19T10:33:22.945Z,1.60
2023-07-19T10:35:58.023Z,1.95
2023-07-19T10:38:27.310Z,1.92
2023-07-19T10:41:05.102Z,1.70
2023-07-19T10:43:48.605Z,1.55
2023-07-19T10:46:19.477Z,1.60
2023-07-19T10:48:46.981Z,1.90
2023-07-19T10:51:13.674Z,1.90
2023-07-19T10:53:45.013Z,1.45
2023-07-19T10:56:11.559Z,1.70
2023-07-19T10:58:38.180Z,1.95
2023-07-19T11:01:05.541Z,1.63
2023-07-19T11:03:34.233Z,1.50
2023-07-19T11:06:01.886Z,1.88
2023-07-19T11:08:32.465Z,1.70
2023-07-19T11:10:59.673Z,2.20
2023-07-19T11:13:27.840Z,1.80
2023-07-19T11:15:56.564Z,1.65
2023-07-19T11:18:24.609Z,1.60
2023-07-19T11:20:51.331Z,1.48
2023-07-19T11:23:24.360Z,1.50
2023-07-19T11:25:51.449Z,1.90
2023-07-19T11:28:40.805Z,2.20
2023-07-19T11:31:08.713Z,1.92
2023-07-19T11:33:40.592Z,1.70
2023-07-19T11:36:09.308Z,1.90
2023-07-19T11:38:39.896Z,1.75
2023-07-19T11:41:08.844Z,2.03
2023-07-19T11:43:42.504Z,1.80
2023-07-19T11:46:09.040Z,1.70
2023-07-19T11:48:35.704Z,1.58
2023-07-19T11:51:10.241Z,2.20
2023-07-19T11:53:37.077Z,1.70
2023-07-19T11:58:45.077Z,1.95
2023-07-19T12:01:13.399Z,2.05
2023-07-19T12:03:41.949Z,1.73
2023-07-19T12:06:10.450Z,1.80
2023-07-19T12:08:37.443Z,1.85
2023-07-19T12:11:04.217Z,1.70
2023-07-19T12:13:31.362Z,1.83
2023-07-19T12:15:58.128Z,1.70
2023-07-19T12:18:31.006Z,2.13
2023-07-19T12:20:57.850Z,1.90
2023-07-19T12:25:54.646Z,1.90
2023-07-19T12:28:23.800Z,1.80
2023-07-19T12:30:51.472Z,1.70
2023-07-19T12:33:20.446Z,2.00
2023-07-19T12:35:49.300Z,1.80
2023-07-19T12:38:16.528Z,2.08
2023-07-19T12:40:44.567Z,1.85
2023-07-19T12:43:11.289Z,2.22
2023-07-19T12:45:37.958Z,1.90
2023-07-19T12:48:11.045Z,1.63
2023-07-19T12:50:38.665Z,1.92
2023-07-19T12:53:05.978Z,2.15
2023-07-19T12:55:34.926Z,1.58
2023-07-19T12:58:01.491Z,1.90
2023-07-19T13:00:28.470Z,1.50
2023-07-19T13:02:55.388Z,1.95
2023-07-19T13:05:22.169Z,2.10
2023-07-19T13:07:50.208Z,1.70
2023-07-19T13:10:18.714Z,1.80
2023-07-19T13:12:49.919Z,1.60
2023-07-19T13:15:16.533Z,2.38
2023-07-19T13:17:45.516Z,1.88
2023-07-19T13:20:12.440Z,2.10
2023-07-19T13:22:39.419Z,1.75
2023-07-19T13:25:16.094Z,1.80
2023-07-19T13:27:42.833Z,2.10
2023-07-19T13:30:09.848Z,1.60
2023-07-19T13:32:36.861Z,1.73
2023-07-19T13:35:03.809Z,1.60
2023-07-19T13:40:09.775Z,2.15
2023-07-19T13:42:39.221Z,1.73
2023-07-19T13:45:06.407Z,2.65
2023-07-19T13:47:34.854Z,1.88
2023-07-19T13:50:03.276Z,1.70
2023-07-19T13:52:29.825Z,1.73
2023-07-19T13:54:58.119Z,2.15
2023-07-19T13:57:24.780Z,1.90
2023-07-19T13:59:51.376Z,1.95
2023-07-19T14:04:53.270Z,1.60
2023-07-19T14:07:21.636Z,1.60
2023-07-19T14:09:48.183Z,2.08
2023-07-19T14:12:15.441Z,1.83
2023-07-19T14:14:45.822Z,1.80
2023-07-19T14:17:12.740Z,1.70
2023-07-19T14:19:43.409Z,1.85
2023-07-19T14:22:18.630Z,1.90
2023-07-19T14:24:45.721Z,1.42
2023-07-19T14:27:12.675Z,1.52
2023-07-19T14:29:39.314Z,1.60
2023-07-19T14:32:10.975Z,1.70
2023-07-19T14:34:40.120Z,1.48
2023-07-19T14:37:18.533Z,1.60
2023-07-19T14:39:45.130Z,1.48
2023-07-19T14:42:12.897Z,1.88
2023-07-19T14:44:39.717Z,2.50
2023-07-19T14:47:06.768Z,1.92
2023-07-19T14:49:35.171Z,1.75
2023-07-19T14:52:04.317Z,2.08
2023-07-19T14:54:30.876Z,1.75
2023-07-19T14:59:43.515Z,2.13
2023-07-19T15:02:19.479Z,2.10
2023-07-19T15:05:01.985Z,2.10
2023-07-19T15:07:29.212Z,2.00
2023-07-19T15:09:55.777Z,2.33
2023-07-19T15:12:24.613Z,1.92
2023-07-19T15:14:51.130Z,2.00
2023-07-19T15:17:20.004Z,2.20
2023-07-19T15:19:46.842Z,2.00
2023-07-19T15:22:13.586Z,1.80
2023-07-19T15:24:40.120Z,1.80
2023-07-19T15:27:09.795Z,1.98
2023-07-19T15:29:40.578Z,1.70
2023-07-19T15:32:09.190Z,1.65
2023-07-19T15:34:35.779Z,1.77
2023-07-19T15:37:02.735Z,2.10
2023-07-19T15:39:34.923Z,2.00
2023-07-19T15:42:01.927Z,1.85
2023-07-19T15:44:35.905Z,1.95
2023-07-19T15:47:06.529Z,1.83
2023-07-19T15:49:33.718Z,1.80
2023-07-19T15:52:00.516Z,1.83
2023-07-19T15:54:32.798Z,2.25
2023-07-19T15:56:59.396Z,2.15
2023-07-19T15:59:25.947Z,2.03
2023-07-19T16:01:58.628Z,2.10
2023-07-19T16:04:25.344Z,2.42
2023-07-19T16:06:51.921Z,2.65
2023-07-19T16:09:18.478Z,2.40
2023-07-19T16:11:45.059Z,2.05
2023-07-19T16:14:13.879Z,2.13
2023-07-19T16:16:40.716Z,2.15
2023-07-19T16:19:07.313Z,2.28
2023-07-19T16:21:35.048Z,2.13
2023-07-19T16:24:03.438Z,2.20
2023-07-19T16:26:34.642Z,1.90
2023-07-19T16:29:01.172Z,1.83
2023-07-19T16:31:28.375Z,2.17
2023-07-19T16:33:55.127Z,2.20
2023-07-19T16:36:21.740Z,2.20
2023-07-19T16:38:57.275Z,1.88
2023-07-19T16:41:25.826Z,2.00
2023-07-19T16:43:52.579Z,2.10
2023-07-19T16:46:20.870Z,2.08
2023-07-19T16:48:47.520Z,2.28
2023-07-19T16:51:14.319Z,2.08
2023-07-19T16:53:42.848Z,2.33
2023-07-19T16:56:09.402Z,2.80
2023-07-19T16:58:36.026Z,2.20
2023-07-19T17:01:09.098Z,2.45
2023-07-19T17:03:35.660Z,2.30
2023-07-19T17:06:02.239Z,2.50
2023-07-19T17:08:28.892Z,2.63
2023-07-19T17:10:55.449Z,2.65
2023-07-19T17:13:24.163Z,2.40
2023-07-19T17:15:54.269Z,2.10
2023-07-19T17:18:20.900Z,2.42
2023-07-19T17:20:47.559Z,2.40
2023-07-19T17:23:14.430Z,2.45
2023-07-19T17:25:42.927Z,2.30
2023-07-19T17:28:09.506Z,2.03
2023-07-19T17:30:43.347Z,2.50
2023-07-19T17:33:11.822Z,2.35
2023-07-19T17:35:38.472Z,2.55
2023-07-19T17:38:15.806Z,2.20
2023-07-19T17:40:44.858Z,2.28
2023-07-19T17:43:12.142Z,2.35
2023-07-19T17:45:38.919Z,2.30
2023-07-19T17:48:09.065Z,2.38
2023-07-19T17:50:36.084Z,2.10
2023-07-19T17:53:09.344Z,2.20
2023-07-19T17:55:35.933Z,2.13
2023-07-19T17:58:02.488Z,2.20
2023-07-19T18:00:29.085Z,1.90
2023-07-19T18:02:56.279Z,2.10
2023-07-19T18:05:22.904Z,2.22
2023-07-19T18:07:49.909Z,1.95
2023-07-19T18:10:16.493Z,2.08
2023-07-19T18:12:43.066Z,1.90
2023-07-19T18:15:12.141Z,2.10
2023-07-19T18:17:38.700Z,2.17
2023-07-19T18:20:06.163Z,1.73
2023-07-19T18:22:34.155Z,2.15
2023-07-19T18:25:00.835Z,2.13
2023-07-19T18:27:27.582Z,2.08
2023-07-19T18:29:54.345Z,2.20
2023-07-19T18:32:20.918Z,2.20
2023-07-19T18:34:47.438Z,2.13
2023-07-19T18:37:13.980Z,2.20
2023-07-19T18:39:42.864Z,2.20
2023-07-19T18:42:09.665Z,2.22
2023-07-19T18:44:37.896Z,2.05
2023-07-19T18:47:04.851Z,2.40
2023-07-19T18:49:31.377Z,1.83
2023-07-19T18:51:58.619Z,2.00
2023-07-19T18:54:28.884Z,1.98
2023-07-19T18:56:57.657Z,2.15
2023-07-19T18:59:24.351Z,1.90
2023-07-19T19:01:52.920Z,2.10
2023-07-19T19:04:19.490Z,2.03
2023-07-19T19:06:47.817Z,1.77
2023-07-19T19:09:16.357Z,2.33
2023-07-19T19:11:42.916Z,2.13
2023-07-19T19:14:11.535Z,2.10
2023-07-19T19:16:38.221Z,1.80
2023-07-19T19:19:04.821Z,1.80
2023-07-19T19:21:36.514Z,1.65
2023-07-19T19:24:05.396Z,2.00
2023-07-19T19:26:32.133Z,1.77
2023-07-19T19:29:00.547Z,1.80
2023-07-19T19:31:27.131Z,1.95
2023-07-19T19:33:53.988Z,1.67
2023-07-19T19:36:24.382Z,1.60
2023-07-19T19:38:52.455Z,1.60
2023-07-19T19:41:19.148Z,1.60
2023-07-19T19:43:47.763Z,1.73
2023-07-19T19:46:14.456Z,1.45
2023-07-19T19:48:42.374Z,1.20
2023-07-19T19:51:09.055Z,1.45
2023-07-19T19:53:36.788Z,1.40
2023-07-19T19:58:34.722Z,1.20
2023-07-19T20:01:01.641Z,1.60
2023-07-19T20:06:00.550Z,1.40
2023-07-19T20:08:27.093Z,1.58
2023-07-19T20:10:59.808Z,1.52
2023-07-19T20:13:31.504Z,1.30
2023-07-19T20:16:00.883Z,1.58
2023-07-19T20:18:47.299Z,1.45
2023-07-19T20:21:16.649Z,1.33
2023-07-19T20:23:43.230Z,1.30
2023-07-19T20:26:15.199Z,1.35
2023-07-19T20:28:47.723Z,1.48
2023-07-19T20:31:55.380Z,1.30
2023-07-19T20:41:37.325Z,1.25
2023-07-19T20:44:04.231Z,1.25
2023-07-19T20:46:34.408Z,1.33
2023-07-19T20:49:05.640Z,1.17
2023-07-19T20:51:35.753Z,1.17
2023-07-19T20:54:02.292Z,1.30
2023-07-19T20:56:28.970Z,1.40
2023-07-19T20:58:55.711Z,1.42
2023-07-19T21:01:22.437Z,1.40
2023-07-19T21:03:49.547Z,1.42
2023-07-19T21:06:16.216Z,1.38
2023-07-19T21:08:42.733Z,1.70
2023-07-19T21:11:15.828Z,1.60
2023-07-19T21:13:42.439Z,1.58
2023-07-19T21:16:09.315Z,1.60
2023-07-19T21:18:37.670Z,1.48
2023-07-19T21:21:04.750Z,1.50
2023-07-19T21:23:31.750Z,1.58
2023-07-19T21:25:58.636Z,1.58
2023-07-19T21:28:25.247Z,1.50
2023-07-19T21:30:51.785Z,1.58
2023-07-19T21:33:18.553Z,1.02
2023-07-19T21:35:48.415Z,1.27
2023-07-19T21:38:15.007Z,1.30
2023-07-19T21:40:43.451Z,1.73
2023-07-19T21:43:10.143Z,1.40
2023-07-19T21:45:36.902Z,1.20
2023-07-19T21:48:05.874Z,1.60
2023-07-19T21:50:32.856Z,1.10
2023-07-19T21:52:59.537Z,1.70
2023-07-19T21:55:27.911Z,1.50
2023-07-19T21:57:54.444Z,1.30
2023-07-19T22:00:45.622Z,1.25
2023-07-19T22:03:13.750Z,1.45
2023-07-19T22:05:41.828Z,1.40
2023-07-19T22:08:08.758Z,1.40
2023-07-19T22:10:38.251Z,1.40
2023-07-19T22:13:06.110Z,1.13
2023-07-19T22:15:38.221Z,1.10
2023-07-19T22:18:25.616Z,1.17
2023-07-19T22:21:01.025Z,1.30
2023-07-19T22:23:34.247Z,1.10
2023-07-19T22:26:05.328Z,1.10
2023-07-19T22:28:31.894Z,1.10
2023-07-19T22:31:00.621Z,1.20
2023-07-19T22:33:29.409Z,1.00
2023-07-19T22:35:55.953Z,1.20
2023-07-19T22:38:22.753Z,1.40
2023-07-19T22:40:49.501Z,1.30
2023-07-19T22:43:16.094Z,0.93
2023-07-19T22:45:42.719Z,1.27
2023-07-19T22:48:09.394Z,1.30
2023-07-19T22:50:36.086Z,1.08
2023-07-19T22:53:03.937Z,1.20
2023-07-19T22:55:30.605Z,1.20
2023-07-19T22:57:57.507Z,0.77
2023-07-19T23:00:24.952Z,1.17
2023-07-19T23:02:52.287Z,1.00
2023-07-19T23:05:19.195Z,1.05
2023-07-19T23:07:47.021Z,1.55
2023-07-19T23:10:16.352Z,1.10
2023-07-19T23:12:43.139Z,1.38
2023-07-19T23:15:10.341Z,1.25
2023-07-19T23:17:37.043Z,1.50
2023-07-19T23:20:07.370Z,0.98
2023-07-19T23:22:34.358Z,1.38
2023-07-19T23:25:01.102Z,1.17
2023-07-19T23:27:27.845Z,1.10
2023-07-19T23:29:55.831Z,1.15
2023-07-19T23:32:24.891Z,1.20
2023-07-19T23:34:51.701Z,1.10
2023-07-19T23:37:19.016Z,1.10
2023-07-19T23:39:52.617Z,1.27
2023-07-19T23:42:21.674Z,1.00
2023-07-19T23:44:53.132Z,1.15
2023-07-19T23:47:23.584Z,1.08
2023-07-19T23:49:50.232Z,1.10
2023-07-19T23:52:17.104Z,1.00
2023-07-19T23:54:45.756Z,1.00
2023-07-19T23:57:12.466Z,0.95
2023-07-19T23:59:39.405Z,1.33
